Time;durP1;ratioP1;P1;durP2;ratioP2;P2;SDS_P1;SDS_P2;PMS_P1;PMS_P2;Temp;Humidity;BMP_temperature;BMP_pressure;BME280_temperature;BME280_humidity;BME280_pressure;Samples;Min_cycle;Max_cycle;Signal;HPM_P1;HPM_P2
2023/09/09 00:01:37;;;;;;;;;;;17.90;99.90;;;;;;20991234;28;19917;-77
2023/09/09 00:11:38;;;;;;;;;;;17.80;99.90;;;;;;20992779;28;20007;-77
2023/09/09 00:21:39;;;;;;;;;;;17.70;99.90;;;;;;20991436;28;19913;-76
2023/09/09 00:31:39;;;;;;;;;;;17.60;99.90;;;;;;21000582;28;20390;-76
2023/09/09 00:41:40;;;;;;;;;;;17.60;99.90;;;;;;20998406;28;19920;-76
2023/09/09 00:51:44;;;;;;;;;;;17.60;99.90;;;;;;20990273;28;19974;-76
2023/09/09 01:01:45;;;;;;;;;;;17.40;99.90;;;;;;20994005;28;19995;-77
2023/09/09 01:11:45;;;;;;;;;;;17.40;99.90;;;;;;21013023;28;19972;-76
2023/09/09 01:21:46;;;;;;;;;;;17.20;99.90;;;;;;20984913;28;20006;-76
2023/09/09 01:31:47;;;;;;;;;;;17.10;99.90;;;;;;20986836;28;19917;-77
2023/09/09 01:41:48;;;;;;;;;;;17.20;99.90;;;;;;21010450;28;20462;-77
2023/09/09 01:51:49;;;;;;;;;;;17.20;99.90;;;;;;21004180;28;19962;-77
2023/09/09 02:01:49;;;;;;;;;;;17.10;99.90;;;;;;20999423;28;19913;-77
2023/09/09 02:11:50;;;;;;;;;;;17.00;99.90;;;;;;20981837;28;20343;-77
2023/09/09 02:21:51;;;;;;;;;;;16.80;99.90;;;;;;21000116;28;19924;-77
2023/09/09 02:31:51;;;;;;;;;;;16.80;99.90;;;;;;21004495;28;19916;-75
2023/09/09 02:41:52;;;;;;;;;;;16.70;99.90;;;;;;20998187;28;20043;-77
2023/09/09 02:51:53;;;;;;;;;;;16.70;99.90;;;;;;20996821;28;19936;-76
2023/09/09 03:01:53;;;;;;;;;;;16.50;99.90;;;;;;20983016;28;19943;-76
2023/09/09 03:11:55;;;;;;;;;;;16.50;99.90;;;;;;20978526;28;19919;-77
2023/09/09 03:21:57;;;;;;;;;;;16.50;99.90;;;;;;20986581;28;19989;-75
2023/09/09 03:31:58;;;;;;;;;;;16.40;99.90;;;;;;20987014;28;19924;-77
2023/09/09 03:41:58;;;;;;;;;;;16.30;99.90;;;;;;20998849;28;19922;-77
2023/09/09 03:51:59;;;;;;;;;;;16.40;99.90;;;;;;20982044;28;19916;-77
2023/09/09 04:02:01;;;;;;;;;;;16.30;99.90;;;;;;21005595;28;19912;-78
2023/09/09 04:12:02;;;;;;;;;;;16.30;99.90;;;;;;20980865;28;20310;-77
2023/09/09 04:22:02;;;;;;;;;;;16.40;99.90;;;;;;20979518;28;19919;-77
2023/09/09 04:32:03;;;;;;;;;;;16.30;99.90;;;;;;21004678;28;20390;-77
2023/09/09 04:42:04;;;;;;;;;;;16.40;99.90;;;;;;20982236;28;19916;-77
2023/09/09 04:52:05;;;;;;;;;;;16.40;99.90;;;;;;20990158;28;19916;-77
2023/09/09 05:02:06;;;;;;;;;;;16.30;99.90;;;;;;20976046;28;19919;-77
2023/09/09 05:12:07;;;;;;;;;;;16.50;99.90;;;;;;20991146;28;20019;-77
2023/09/09 05:22:08;;;;;;;;;;;16.50;99.90;;;;;;20972795;28;19966;-77
2023/09/09 05:32:08;;;;;;;;;;;17.00;99.90;;;;;;20983278;28;20418;-77
2023/09/09 05:42:09;;;;;;;;;;;17.00;99.90;;;;;;20979301;28;19912;-77
2023/09/09 05:52:12;;;;;;;;;;;17.30;99.90;;;;;;20984665;28;20354;-77
2023/09/09 06:02:13;;;;;;;;;;;17.80;99.90;;;;;;21006912;28;20477;-77
2023/09/09 06:12:14;;;;;;;;;;;18.10;99.90;;;;;;21006019;28;19920;-77
2023/09/09 06:22:15;;;;;;;;;;;18.60;99.90;;;;;;21005238;28;19919;-77
2023/09/09 06:32:15;;;;;;;;;;;19.30;99.90;;;;;;21008753;28;20264;-77
2023/09/09 06:42:16;;;;;;;;;;;19.80;99.90;;;;;;20985929;28;20294;-77
2023/09/09 06:52:21;;;;;;;;;;;20.40;99.90;;;;;;20982982;28;20010;-77
2023/09/09 07:02:22;;;;;;;;;;;21.00;99.90;;;;;;21005233;28;20015;-77
2023/09/09 07:12:22;;;;;;;;;;;21.60;99.90;;;;;;20998442;28;20362;-77
2023/09/09 07:22:23;;;;;;;;;;;21.90;99.90;;;;;;20997265;28;19912;-77
2023/09/09 07:32:24;;;;;;;;;;;22.60;99.90;;;;;;21006297;28;20562;-77
2023/09/09 07:42:25;;;;;;;;;;;23.70;99.90;;;;;;20923568;28;19912;-74
2023/09/09 07:52:26;;;;;;;;;;;23.50;99.90;;;;;;20919291;28;19960;-75
2023/09/09 08:02:27;;;;;;;;;;;23.10;99.90;;;;;;20911600;28;19913;-73
2023/09/09 08:12:29;;;;;;;;;;;24.00;99.90;;;;;;20901815;28;19956;-76
2023/09/09 08:22:30;;;;;;;;;;;25.40;99.90;;;;;;20897371;28;19991;-74
2023/09/09 08:32:30;;;;;;;;;;;26.20;99.90;;;;;;20909866;28;19959;-74
2023/09/09 08:42:50;;;;;;;;;;;27.30;99.90;;;;;;20987231;28;19935;-73
2023/09/09 08:52:53;;;;;;;;;;;26.80;99.90;;;;;;20978737;28;19916;-77
2023/09/09 09:02:55;;;;;;;;;;;28.00;99.90;;;;;;20990050;28;19913;-73
2023/09/09 09:12:56;;;;;;;;;;;28.20;99.90;;;;;;20985402;28;19923;-73
2023/09/09 09:22:58;;;;;;;;;;;29.00;99.90;;;;;;20975532;28;19920;-73
2023/09/09 09:32:59;;;;;;;;;;;30.00;99.90;;;;;;20998824;28;20405;-77
2023/09/09 09:43:00;;;;;;;;;;;30.70;99.90;;;;;;20984922;28;19913;-77
2023/09/09 09:53:04;;;;;;;;;;;30.00;99.90;;;;;;21001255;28;20256;-77
2023/09/09 10:03:06;;;;;;;;;;;30.90;99.90;;;;;;21000731;28;20282;-76
2023/09/09 10:13:10;;;;;;;;;;;31.70;99.90;;;;;;21005166;28;19959;-76
2023/09/09 10:23:11;;;;;;;;;;;32.90;99.90;;;;;;21000506;28;20259;-76
2023/09/09 10:33:13;;;;;;;;;;;33.20;99.90;;;;;;20998267;28;20359;-76
2023/09/09 10:43:14;;;;;;;;;;;33.30;99.90;;;;;;21001100;28;19991;-76
2023/09/09 10:53:28;;;;;;;;;;;33.20;99.90;;;;;;20982587;28;19948;-76
2023/09/09 11:03:36;;;;;;;;;;;32.10;99.90;;;;;;21004180;28;20420;-76
2023/09/09 11:13:57;;;;;;;;;;;32.90;99.90;;;;;;21008818;28;19944;-76
2023/09/09 11:23:58;;;;;;;;;;;32.70;99.90;;;;;;20988761;28;20003;-76
2023/09/09 11:33:59;;;;;;;;;;;33.00;99.90;;;;;;21019248;28;19916;-75
2023/09/09 11:44:03;;;;;;;;;;;34.30;96.90;;;;;;21010807;28;19920;-76
2023/09/09 11:54:06;;;;;;;;;;;34.50;95.60;;;;;;21004780;28;20319;-76
2023/09/09 12:04:07;;;;;;;;;;;34.10;94.40;;;;;;21006382;28;20663;-76
2023/09/09 12:14:08;;;;;;;;;;;32.50;96.40;;;;;;21000665;28;20079;-77
2023/09/09 12:24:09;;;;;;;;;;;32.30;96.60;;;;;;21002072;28;19939;-76
2023/09/09 12:34:10;;;;;;;;;;;32.30;96.60;;;;;;21034089;22;19924;-79
2023/09/09 12:44:11;;;;;;;;;;;32.60;95.40;;;;;;21075170;28;20461;-78
2023/09/09 12:54:11;;;;;;;;;;;32.80;95.70;;;;;;21054267;28;19931;-77
2023/09/09 13:04:12;;;;;;;;;;;33.00;94.80;;;;;;21070136;28;19913;-78
2023/09/09 13:14:12;;;;;;;;;;;32.30;96.90;;;;;;21054352;28;20291;-78
2023/09/09 13:24:13;;;;;;;;;;;32.20;94.70;;;;;;21071415;28;19927;-77
2023/09/09 13:34:14;;;;;;;;;;;32.70;93.70;;;;;;21077126;28;20011;-78
2023/09/09 13:44:14;;;;;;;;;;;32.50;94.50;;;;;;21071972;28;19912;-78
2023/09/09 13:54:15;;;;;;;;;;;32.40;93.30;;;;;;21069671;28;19916;-78
2023/09/09 14:04:17;;;;;;;;;;;32.20;92.60;;;;;;21028749;28;20527;-78
2023/09/09 14:14:17;;;;;;;;;;;32.80;94.90;;;;;;21082872;28;19916;-78
2023/09/09 14:24:18;;;;;;;;;;;32.10;93.20;;;;;;21047858;28;19969;-78
2023/09/09 14:34:18;;;;;;;;;;;32.30;93.80;;;;;;21011176;28;19973;-77
2023/09/09 14:44:19;;;;;;;;;;;32.50;93.60;;;;;;21080660;28;19912;-77
2023/09/09 14:54:20;;;;;;;;;;;32.20;92.80;;;;;;21081426;28;20278;-77
2023/09/09 15:04:20;;;;;;;;;;;32.40;91.80;;;;;;21081805;28;20386;-76
2023/09/09 15:14:21;;;;;;;;;;;32.20;92.20;;;;;;21079588;28;19920;-76
2023/09/09 15:24:22;;;;;;;;;;;31.90;91.90;;;;;;21047682;28;19943;-76
2023/09/09 15:34:22;;;;;;;;;;;32.30;91.60;;;;;;21078111;28;19966;-76
2023/09/09 15:44:23;;;;;;;;;;;31.60;91.60;;;;;;21077648;28;20014;-76
2023/09/09 15:54:23;;;;;;;;;;;31.20;92.50;;;;;;21073226;28;19923;-76
2023/09/09 16:04:24;;;;;;;;;;;30.70;93.70;;;;;;21045681;28;19978;-76
2023/09/09 16:14:25;;;;;;;;;;;30.30;93.30;;;;;;21068848;28;19962;-78
2023/09/09 16:24:25;;;;;;;;;;;30.10;93.80;;;;;;21074717;28;19912;-77
2023/09/09 16:34:28;;;;;;;;;;;29.80;93.90;;;;;;21072983;28;19978;-77
2023/09/09 16:44:29;;;;;;;;;;;29.60;94.60;;;;;;21039583;28;19912;-78
2023/09/09 16:54:29;;;;;;;;;;;29.40;94.60;;;;;;21048946;28;19916;-77
2023/09/09 17:04:30;;;;;;;;;;;29.10;96.00;;;;;;21072440;28;19950;-79
2023/09/09 17:14:31;;;;;;;;;;;28.20;99.90;;;;;;21072343;28;20329;-78
2023/09/09 17:24:32;;;;;;;;;;;27.60;99.90;;;;;;21072461;28;19916;-78
2023/09/09 17:34:39;;;;;;;;;;;27.30;99.90;;;;;;21053235;28;19916;-76
2023/09/09 17:44:40;;;;;;;;;;;26.50;99.90;;;;;;21078217;28;20006;-77
2023/09/09 17:54:40;;;;;;;;;;;26.00;99.90;;;;;;21079900;28;19955;-76
2023/09/09 18:04:41;;;;;;;;;;;25.90;99.90;;;;;;21085531;28;20007;-77
2023/09/09 18:14:42;;;;;;;;;;;25.20;99.90;;;;;;21085209;28;19989;-77
2023/09/09 18:24:43;;;;;;;;;;;24.20;99.90;;;;;;21084585;28;20002;-77
2023/09/09 18:34:44;;;;;;;;;;;23.70;99.90;;;;;;21081799;22;19971;-75
2023/09/09 18:44:44;;;;;;;;;;;22.90;99.90;;;;;;21001911;28;19935;-75
2023/09/09 18:54:46;;;;;;;;;;;22.60;99.90;;;;;;20992582;28;19921;-75
2023/09/09 19:04:46;;;;;;;;;;;22.40;99.90;;;;;;20976810;28;19913;-75
2023/09/09 19:14:49;;;;;;;;;;;22.10;99.90;;;;;;20982981;28;21581;-76
2023/09/09 19:24:50;;;;;;;;;;;21.90;99.90;;;;;;21010465;28;19923;-76
2023/09/09 19:34:51;;;;;;;;;;;21.80;99.90;;;;;;21028510;28;19999;-76
2023/09/09 19:44:53;;;;;;;;;;;21.20;99.90;;;;;;21013858;28;20372;-76
2023/09/09 19:54:54;;;;;;;;;;;20.70;99.90;;;;;;21006859;28;20446;-75
2023/09/09 20:04:54;;;;;;;;;;;20.70;99.90;;;;;;20976490;28;19981;-75
2023/09/09 20:14:55;;;;;;;;;;;20.70;99.90;;;;;;20994017;28;19979;-76
2023/09/09 20:24:56;;;;;;;;;;;20.60;99.90;;;;;;20975696;28;19978;-76
2023/09/09 20:34:56;;;;;;;;;;;20.30;99.90;;;;;;21013233;28;19916;-76
2023/09/09 20:44:57;;;;;;;;;;;20.00;99.90;;;;;;20988484;28;19955;-76
2023/09/09 20:54:58;;;;;;;;;;;19.60;99.90;;;;;;20996060;28;20350;-76
2023/09/09 21:04:58;;;;;;;;;;;19.40;99.90;;;;;;20959731;28;19912;-76
2023/09/09 21:14:59;;;;;;;;;;;19.40;99.90;;;;;;20972500;28;19920;-76
2023/09/09 21:25:00;;;;;;;;;;;19.50;99.90;;;;;;21001997;28;19916;-76
2023/09/09 21:35:01;;;;;;;;;;;19.40;99.90;;;;;;20953550;28;1845684;-75
2023/09/09 21:45:02;;;;;;;;;;;19.00;99.90;;;;;;21014658;28;19962;-76
2023/09/09 21:55:03;;;;;;;;;;;19.10;99.90;;;;;;21012791;28;19916;-75
2023/09/09 22:05:04;;;;;;;;;;;18.80;99.90;;;;;;20986920;28;19919;-74
2023/09/09 22:15:08;;;;;;;;;;;18.50;99.90;;;;;;20989693;28;19917;-74
2023/09/09 22:25:09;;;;;;;;;;;18.60;99.90;;;;;;20984559;28;20005;-75
2023/09/09 22:35:10;;;;;;;;;;;18.40;99.90;;;;;;21002910;28;19920;-75
2023/09/09 22:45:11;;;;;;;;;;;18.30;99.90;;;;;;21001383;28;19912;-75
2023/09/09 22:55:11;;;;;;;;;;;18.30;99.90;;;;;;20985420;28;20011;-76
2023/09/09 23:05:12;;;;;;;;;;;18.40;99.90;;;;;;20967381;28;19920;-75
2023/09/09 23:15:14;;;;;;;;;;;18.10;99.90;;;;;;21000728;28;20264;-75
2023/09/09 23:25:16;;;;;;;;;;;17.80;99.90;;;;;;21001361;28;19939;-75
2023/09/09 23:35:17;;;;;;;;;;;17.60;99.90;;;;;;20993926;28;19962;-75
2023/09/09 23:45:18;;;;;;;;;;;17.80;99.90;;;;;;20992920;28;19912;-75
2023/09/09 23:55:19;;;;;;;;;;;17.90;99.90;;;;;;20996534;28;19920;-75
